sensor_id;sensor_type;location;lat;lon;timestamp;pressure;altitude;pressure_sealevel;temperature;humidity
64628;BME280;68467;50.960;0.314;2024-01-30T00:02:16;100577.75;;;10.30;100.00
64628;BME280;68467;50.960;0.314;2024-01-30T00:04:44;100597.94;;;10.06;100.00
64628;BME280;68467;50.960;0.314;2024-01-30T00:07:11;100597.16;;;10.41;100.00
64628;BME280;68467;50.960;0.314;2024-01-30T00:09:40;100577.54;;;10.20;100.00
64628;BME280;68467;50.960;0.314;2024-01-30T00:12:07;100594.46;;;10.03;100.00
64628;BME280;68467;50.960;0.314;2024-01-30T00:14:34;100578.92;;;9.89;100.00
64628;BME280;68467;50.960;0.314;2024-01-30T00:17:02;100575.06;;;10.33;100.00
64628;BME280;68467;50.960;0.314;2024-01-30T00:19:29;100578.63;;;10.20;100.00
64628;BME280;68467;50.960;0.314;2024-01-30T00:21:56;100561.90;;;10.28;100.00
64628;BME280;68467;50.960;0.314;2024-01-30T00:24:23;100561.40;;;9.94;100.00
64628;BME280;68467;50.960;0.314;2024-01-30T00:26:51;100563.71;;;10.25;100.00
64628;BME280;68467;50.960;0.314;2024-01-30T00:29:18;100556.98;;;9.92;100.00
64628;BME280;68467;50.960;0.314;2024-01-30T00:31:45;100554.82;;;10.05;100.00
64628;BME280;68467;50.960;0.314;2024-01-30T00:34:13;100566.58;;;10.16;100.00
64628;BME280;68467;50.960;0.314;2024-01-30T00:36:40;100551.14;;;9.87;100.00
64628;BME280;68467;50.960;0.314;2024-01-30T00:39:07;100561.26;;;10.36;100.00
64628;BME280;68467;50.960;0.314;2024-01-30T00:41:34;100563.95;;;10.26;100.00
64628;BME280;68467;50.960;0.314;2024-01-30T00:44:01;100559.14;;;10.34;100.00
64628;BME280;68467;50.960;0.314;2024-01-30T00:46:29;100575.00;;;9.88;100.00
64628;BME280;68467;50.960;0.314;2024-01-30T00:48:57;100567.11;;;10.55;100.00
64628;BME280;68467;50.960;0.314;2024-01-30T00:51:24;100548.79;;;10.28;100.00
64628;BME280;68467;50.960;0.314;2024-01-30T00:53:51;100567.44;;;10.38;100.00
64628;BME280;68467;50.960;0.314;2024-01-30T00:56:19;100559.97;;;10.55;100.00
64628;BME280;68467;50.960;0.314;2024-01-30T00:58:46;100564.75;;;10.64;100.00
64628;BME280;68467;50.960;0.314;2024-01-30T01:01:13;100570.60;;;10.75;100.00
64628;BME280;68467;50.960;0.314;2024-01-30T01:03:41;100570.30;;;10.65;100.00
64628;BME280;68467;50.960;0.314;2024-01-30T01:06:08;100546.37;;;10.78;100.00
64628;BME280;68467;50.960;0.314;2024-01-30T01:08:36;100545.54;;;11.10;100.00
64628;BME280;68467;50.960;0.314;2024-01-30T01:11:04;100553.52;;;10.99;100.00
64628;BME280;68467;50.960;0.314;2024-01-30T01:13:32;100552.23;;;10.75;100.00
64628;BME280;68467;50.960;0.314;2024-01-30T01:16:00;100559.29;;;10.65;100.00
64628;BME280;68467;50.960;0.314;2024-01-30T01:18:27;100561.60;;;10.83;100.00
64628;BME280;68467;50.960;0.314;2024-01-30T01:20:55;100543.69;;;10.85;100.00
64628;BME280;68467;50.960;0.314;2024-01-30T01:23:22;100547.90;;;10.51;100.00
64628;BME280;68467;50.960;0.314;2024-01-30T01:25:49;100541.36;;;10.89;100.00
64628;BME280;68467;50.960;0.314;2024-01-30T01:28:17;100545.35;;;10.49;100.00
64628;BME280;68467;50.960;0.314;2024-01-30T01:30:44;100544.35;;;10.81;100.00
64628;BME280;68467;50.960;0.314;2024-01-30T01:33:12;100538.08;;;10.28;100.00
64628;BME280;68467;50.960;0.314;2024-01-30T01:35:39;100548.11;;;10.74;100.00
64628;BME280;68467;50.960;0.314;2024-01-30T01:38:07;100548.48;;;10.52;100.00
64628;BME280;68467;50.960;0.314;2024-01-30T01:40:33;100541.45;;;10.47;100.00
64628;BME280;68467;50.960;0.314;2024-01-30T01:43:03;100555.40;;;10.70;100.00
64628;BME280;68467;50.960;0.314;2024-01-30T01:45:31;100556.40;;;11.09;100.00
64628;BME280;68467;50.960;0.314;2024-01-30T01:47:59;100555.34;;;10.31;100.00
64628;BME280;68467;50.960;0.314;2024-01-30T01:50:26;100557.81;;;10.62;100.00
64628;BME280;68467;50.960;0.314;2024-01-30T01:52:53;100555.46;;;10.57;100.00
64628;BME280;68467;50.960;0.314;2024-01-30T01:55:21;100550.00;;;10.64;100.00
64628;BME280;68467;50.960;0.314;2024-01-30T01:57:49;100553.39;;;10.15;100.00
64628;BME280;68467;50.960;0.314;2024-01-30T02:00:16;100554.50;;;9.93;100.00
64628;BME280;68467;50.960;0.314;2024-01-30T02:02:46;100540.68;;;9.74;100.00
64628;BME280;68467;50.960;0.314;2024-01-30T02:05:14;100546.84;;;10.07;100.00
64628;BME280;68467;50.960;0.314;2024-01-30T02:07:43;100546.72;;;9.86;100.00
64628;BME280;68467;50.960;0.314;2024-01-30T02:10:10;100553.24;;;10.37;100.00
64628;BME280;68467;50.960;0.314;2024-01-30T02:12:38;100547.76;;;10.01;100.00
64628;BME280;68467;50.960;0.314;2024-01-30T02:15:06;100565.61;;;9.86;100.00
64628;BME280;68467;50.960;0.314;2024-01-30T02:17:34;100556.71;;;9.70;100.00
64628;BME280;68467;50.960;0.314;2024-01-30T02:20:01;100561.90;;;9.42;100.00
64628;BME280;68467;50.960;0.314;2024-01-30T02:22:29;100562.72;;;9.45;100.00
64628;BME280;68467;50.960;0.314;2024-01-30T02:24:56;100549.67;;;9.43;100.00
64628;BME280;68467;50.960;0.314;2024-01-30T02:27:23;100536.01;;;9.47;100.00
64628;BME280;68467;50.960;0.314;2024-01-30T02:29:51;100548.57;;;8.96;100.00
64628;BME280;68467;50.960;0.314;2024-01-30T02:32:18;100553.23;;;9.28;100.00
64628;BME280;68467;50.960;0.314;2024-01-30T02:34:45;100549.42;;;9.47;100.00
64628;BME280;68467;50.960;0.314;2024-01-30T02:37:12;100541.17;;;9.46;100.00
64628;BME280;68467;50.960;0.314;2024-01-30T02:39:39;100547.27;;;8.94;100.00
64628;BME280;68467;50.960;0.314;2024-01-30T02:42:06;100544.72;;;8.95;100.00
64628;BME280;68467;50.960;0.314;2024-01-30T02:44:33;100547.86;;;9.25;100.00
64628;BME280;68467;50.960;0.314;2024-01-30T02:47:01;100540.26;;;9.03;100.00
64628;BME280;68467;50.960;0.314;2024-01-30T02:49:28;100543.76;;;9.37;100.00
64628;BME280;68467;50.960;0.314;2024-01-30T02:51:56;100550.97;;;9.23;100.00
64628;BME280;68467;50.960;0.314;2024-01-30T02:54:23;100551.96;;;8.96;100.00
64628;BME280;68467;50.960;0.314;2024-01-30T02:56:50;100544.70;;;8.90;100.00
64628;BME280;68467;50.960;0.314;2024-01-30T02:59:17;100538.14;;;9.04;100.00
64628;BME280;68467;50.960;0.314;2024-01-30T03:01:45;100545.46;;;8.22;100.00
64628;BME280;68467;50.960;0.314;2024-01-30T03:04:12;100545.34;;;8.35;100.00
64628;BME280;68467;50.960;0.314;2024-01-30T03:06:39;100567.40;;;8.63;100.00
64628;BME280;68467;50.960;0.314;2024-01-30T03:09:06;100556.31;;;8.94;100.00
64628;BME280;68467;50.960;0.314;2024-01-30T03:11:33;100550.19;;;8.59;100.00
64628;BME280;68467;50.960;0.314;2024-01-30T03:14:00;100556.15;;;8.69;100.00
64628;BME280;68467;50.960;0.314;2024-01-30T03:16:27;100557.09;;;9.01;100.00
64628;BME280;68467;50.960;0.314;2024-01-30T03:18:54;100555.94;;;8.47;100.00
64628;BME280;68467;50.960;0.314;2024-01-30T03:21:22;100546.14;;;8.63;100.00
64628;BME280;68467;50.960;0.314;2024-01-30T03:23:49;100558.66;;;8.45;100.00
64628;BME280;68467;50.960;0.314;2024-01-30T03:26:16;100539.32;;;8.43;100.00
64628;BME280;68467;50.960;0.314;2024-01-30T03:28:43;100550.21;;;8.66;100.00
64628;BME280;68467;50.960;0.314;2024-01-30T03:31:12;100540.40;;;8.55;100.00
64628;BME280;68467;50.960;0.314;2024-01-30T03:33:39;100551.37;;;8.53;100.00
64628;BME280;68467;50.960;0.314;2024-01-30T03:36:07;100560.17;;;8.77;100.00
64628;BME280;68467;50.960;0.314;2024-01-30T03:38:34;100555.47;;;8.46;100.00
64628;BME280;68467;50.960;0.314;2024-01-30T03:41:02;100553.29;;;8.47;100.00
64628;BME280;68467;50.960;0.314;2024-01-30T03:43:29;100555.47;;;8.56;100.00
64628;BME280;68467;50.960;0.314;2024-01-30T03:45:56;100556.83;;;8.29;100.00
64628;BME280;68467;50.960;0.314;2024-01-30T03:48:24;100554.37;;;8.31;100.00
64628;BME280;68467;50.960;0.314;2024-01-30T03:50:51;100562.61;;;8.50;100.00
64628;BME280;68467;50.960;0.314;2024-01-30T03:53:18;100562.56;;;8.73;100.00
64628;BME280;68467;50.960;0.314;2024-01-30T03:55:46;100563.83;;;8.38;100.00
64628;BME280;68467;50.960;0.314;2024-01-30T03:58:13;100567.94;;;8.46;100.00
64628;BME280;68467;50.960;0.314;2024-01-30T04:00:41;100563.94;;;8.61;100.00
64628;BME280;68467;50.960;0.314;2024-01-30T04:03:08;100568.34;;;8.59;100.00
64628;BME280;68467;50.960;0.314;2024-01-30T04:05:35;100575.36;;;8.41;100.00
64628;BME280;68467;50.960;0.314;2024-01-30T04:08:02;100569.11;;;8.12;100.00
64628;BME280;68467;50.960;0.314;2024-01-30T04:10:29;100581.57;;;8.04;100.00
64628;BME280;68467;50.960;0.314;2024-01-30T04:12:56;100576.42;;;8.40;100.00
64628;BME280;68467;50.960;0.314;2024-01-30T04:15:23;100578.78;;;8.44;100.00
64628;BME280;68467;50.960;0.314;2024-01-30T04:17:50;100578.54;;;8.44;100.00
64628;BME280;68467;50.960;0.314;2024-01-30T04:20:17;100580.25;;;8.27;100.00
64628;BME280;68467;50.960;0.314;2024-01-30T04:22:44;100588.49;;;8.43;100.00
64628;BME280;68467;50.960;0.314;2024-01-30T04:25:12;100574.78;;;8.18;100.00
64628;BME280;68467;50.960;0.314;2024-01-30T04:27:40;100569.66;;;8.61;100.00
64628;BME280;68467;50.960;0.314;2024-01-30T04:30:08;100574.67;;;8.54;100.00
64628;BME280;68467;50.960;0.314;2024-01-30T04:32:35;100565.94;;;8.57;100.00
64628;BME280;68467;50.960;0.314;2024-01-30T04:35:04;100577.53;;;8.27;100.00
64628;BME280;68467;50.960;0.314;2024-01-30T04:37:31;100588.77;;;8.24;100.00
64628;BME280;68467;50.960;0.314;2024-01-30T04:39:58;100591.63;;;7.65;100.00
64628;BME280;68467;50.960;0.314;2024-01-30T04:42:26;100583.54;;;8.18;100.00
64628;BME280;68467;50.960;0.314;2024-01-30T04:44:53;100579.28;;;8.56;100.00
64628;BME280;68467;50.960;0.314;2024-01-30T04:47:20;100581.21;;;8.58;100.00
64628;BME280;68467;50.960;0.314;2024-01-30T04:49:47;100601.77;;;8.15;100.00
64628;BME280;68467;50.960;0.314;2024-01-30T04:52:15;100604.19;;;7.92;100.00
64628;BME280;68467;50.960;0.314;2024-01-30T04:54:42;100596.65;;;8.08;100.00
64628;BME280;68467;50.960;0.314;2024-01-30T04:57:09;100601.35;;;7.75;100.00
64628;BME280;68467;50.960;0.314;2024-01-30T04:59:36;100606.34;;;8.18;100.00
64628;BME280;68467;50.960;0.314;2024-01-30T05:02:04;100611.60;;;8.57;100.00
64628;BME280;68467;50.960;0.314;2024-01-30T05:04:31;100617.93;;;8.34;100.00
64628;BME280;68467;50.960;0.314;2024-01-30T05:06:58;100614.34;;;8.65;100.00
64628;BME280;68467;50.960;0.314;2024-01-30T05:09:25;100604.63;;;8.44;100.00
64628;BME280;68467;50.960;0.314;2024-01-30T05:11:52;100608.70;;;7.85;100.00
64628;BME280;68467;50.960;0.314;2024-01-30T05:14:19;100610.63;;;7.99;100.00
64628;BME280;68467;50.960;0.314;2024-01-30T05:16:46;100612.61;;;8.51;100.00
64628;BME280;68467;50.960;0.314;2024-01-30T05:19:13;100614.51;;;8.15;100.00
64628;BME280;68467;50.960;0.314;2024-01-30T05:21:41;100615.41;;;7.91;100.00
64628;BME280;68467;50.960;0.314;2024-01-30T05:24:08;100608.00;;;7.51;100.00
64628;BME280;68467;50.960;0.314;2024-01-30T05:26:36;100624.38;;;7.87;100.00
64628;BME280;68467;50.960;0.314;2024-01-30T05:29:02;100616.52;;;7.52;100.00
64628;BME280;68467;50.960;0.314;2024-01-30T05:31:30;100613.51;;;7.16;100.00
64628;BME280;68467;50.960;0.314;2024-01-30T05:33:57;100608.41;;;7.78;100.00
64628;BME280;68467;50.960;0.314;2024-01-30T05:36:24;100617.66;;;7.70;100.00
64628;BME280;68467;50.960;0.314;2024-01-30T05:38:51;100601.13;;;7.14;100.00
64628;BME280;68467;50.960;0.314;2024-01-30T05:41:19;100613.20;;;7.45;100.00
64628;BME280;68467;50.960;0.314;2024-01-30T05:43:46;100609.12;;;7.74;100.00
64628;BME280;68467;50.960;0.314;2024-01-30T05:46:13;100618.38;;;7.97;100.00
64628;BME280;68467;50.960;0.314;2024-01-30T05:48:40;100624.70;;;8.11;100.00
64628;BME280;68467;50.960;0.314;2024-01-30T05:51:07;100631.10;;;8.26;100.00
64628;BME280;68467;50.960;0.314;2024-01-30T05:53:34;100638.30;;;8.29;100.00
64628;BME280;68467;50.960;0.314;2024-01-30T05:56:02;100638.58;;;8.36;100.00
64628;BME280;68467;50.960;0.314;2024-01-30T05:58:29;100642.45;;;8.57;100.00
64628;BME280;68467;50.960;0.314;2024-01-30T06:00:56;100648.64;;;7.91;100.00
64628;BME280;68467;50.960;0.314;2024-01-30T06:03:23;100648.08;;;7.88;100.00
64628;BME280;68467;50.960;0.314;2024-01-30T06:05:50;100663.33;;;8.43;100.00
64628;BME280;68467;50.960;0.314;2024-01-30T06:08:18;100661.40;;;8.07;100.00
64628;BME280;68467;50.960;0.314;2024-01-30T06:10:45;100656.74;;;7.87;100.00
64628;BME280;68467;50.960;0.314;2024-01-30T06:13:12;100656.10;;;8.68;100.00
64628;BME280;68467;50.960;0.314;2024-01-30T06:15:39;100661.81;;;8.79;100.00
64628;BME280;68467;50.960;0.314;2024-01-30T06:18:06;100660.16;;;8.36;100.00
64628;BME280;68467;50.960;0.314;2024-01-30T06:20:33;100663.91;;;7.89;100.00
64628;BME280;68467;50.960;0.314;2024-01-30T06:23:01;100664.37;;;8.07;100.00
64628;BME280;68467;50.960;0.314;2024-01-30T06:25:27;100669.65;;;8.21;100.00
64628;BME280;68467;50.960;0.314;2024-01-30T06:27:56;100674.65;;;8.18;100.00
64628;BME280;68467;50.960;0.314;2024-01-30T06:30:23;100684.79;;;8.31;100.00
64628;BME280;68467;50.960;0.314;2024-01-30T06:32:50;100678.31;;;8.54;100.00
64628;BME280;68467;50.960;0.314;2024-01-30T06:35:17;100684.41;;;8.13;100.00
64628;BME280;68467;50.960;0.314;2024-01-30T06:37:44;100695.12;;;7.82;100.00
64628;BME280;68467;50.960;0.314;2024-01-30T06:40:12;100699.53;;;8.21;100.00
64628;BME280;68467;50.960;0.314;2024-01-30T06:42:39;100703.33;;;7.90;100.00
64628;BME280;68467;50.960;0.314;2024-01-30T06:45:07;100712.26;;;8.14;100.00
64628;BME280;68467;50.960;0.314;2024-01-30T06:47:34;100708.33;;;8.49;100.00
64628;BME280;68467;50.960;0.314;2024-01-30T06:50:01;100705.46;;;8.63;100.00
64628;BME280;68467;50.960;0.314;2024-01-30T06:52:28;100705.20;;;8.08;100.00
64628;BME280;68467;50.960;0.314;2024-01-30T06:54:56;100710.12;;;8.27;100.00
64628;BME280;68467;50.960;0.314;2024-01-30T06:57:23;100711.35;;;8.19;100.00
64628;BME280;68467;50.960;0.314;2024-01-30T06:59:50;100717.35;;;7.59;100.00
64628;BME280;68467;50.960;0.314;2024-01-30T07:02:17;100718.20;;;7.94;100.00
64628;BME280;68467;50.960;0.314;2024-01-30T07:04:44;100724.87;;;8.06;100.00
64628;BME280;68467;50.960;0.314;2024-01-30T07:07:11;100730.93;;;7.79;100.00
64628;BME280;68467;50.960;0.314;2024-01-30T07:09:38;100733.95;;;7.72;100.00
64628;BME280;68467;50.960;0.314;2024-01-30T07:12:06;100731.17;;;8.10;100.00
64628;BME280;68467;50.960;0.314;2024-01-30T07:14:34;100733.18;;;7.65;100.00
64628;BME280;68467;50.960;0.314;2024-01-30T07:17:01;100746.00;;;7.69;100.00
64628;BME280;68467;50.960;0.314;2024-01-30T07:19:28;100748.54;;;7.92;100.00
64628;BME280;68467;50.960;0.314;2024-01-30T07:21:55;100752.53;;;8.27;100.00
64628;BME280;68467;50.960;0.314;2024-01-30T07:24:22;100747.57;;;7.98;100.00
64628;BME280;68467;50.960;0.314;2024-01-30T07:26:49;100751.75;;;7.87;100.00
64628;BME280;68467;50.960;0.314;2024-01-30T07:29:16;100757.96;;;7.56;100.00
64628;BME280;68467;50.960;0.314;2024-01-30T07:31:44;100770.16;;;7.60;100.00
64628;BME280;68467;50.960;0.314;2024-01-30T07:34:11;100775.27;;;7.47;100.00
64628;BME280;68467;50.960;0.314;2024-01-30T07:36:39;100788.27;;;7.67;100.00
64628;BME280;68467;50.960;0.314;2024-01-30T07:39:06;100791.92;;;7.96;100.00
64628;BME280;68467;50.960;0.314;2024-01-30T07:41:33;100797.00;;;8.04;100.00
64628;BME280;68467;50.960;0.314;2024-01-30T07:44:00;100796.19;;;8.46;100.00
64628;BME280;68467;50.960;0.314;2024-01-30T07:46:27;100807.10;;;8.20;100.00
64628;BME280;68467;50.960;0.314;2024-01-30T07:48:55;100815.07;;;8.25;100.00
64628;BME280;68467;50.960;0.314;2024-01-30T07:51:22;100823.69;;;8.76;100.00
64628;BME280;68467;50.960;0.314;2024-01-30T07:53:49;100827.09;;;8.56;100.00
64628;BME280;68467;50.960;0.314;2024-01-30T07:56:16;100838.11;;;7.19;100.00
64628;BME280;68467;50.960;0.314;2024-01-30T07:58:44;100840.67;;;8.12;100.00
64628;BME280;68467;50.960;0.314;2024-01-30T08:01:11;100838.83;;;7.94;100.00
64628;BME280;68467;50.960;0.314;2024-01-30T08:03:38;100847.72;;;7.58;100.00
64628;BME280;68467;50.960;0.314;2024-01-30T08:06:05;100852.06;;;7.34;100.00
64628;BME280;68467;50.960;0.314;2024-01-30T08:08:34;100850.13;;;7.45;100.00
64628;BME280;68467;50.960;0.314;2024-01-30T08:11:01;100850.18;;;7.04;100.00
64628;BME280;68467;50.960;0.314;2024-01-30T08:13:28;100862.99;;;7.06;100.00
64628;BME280;68467;50.960;0.314;2024-01-30T08:15:55;100865.23;;;7.63;100.00
64628;BME280;68467;50.960;0.314;2024-01-30T08:18:22;100872.03;;;7.40;100.00
64628;BME280;68467;50.960;0.314;2024-01-30T08:20:49;100872.12;;;7.21;100.00
64628;BME280;68467;50.960;0.314;2024-01-30T08:23:17;100876.40;;;7.07;100.00
64628;BME280;68467;50.960;0.314;2024-01-30T08:25:44;100890.18;;;6.26;100.00
64628;BME280;68467;50.960;0.314;2024-01-30T08:28:11;100900.65;;;6.69;100.00
64628;BME280;68467;50.960;0.314;2024-01-30T08:30:38;100900.51;;;7.10;100.00
64628;BME280;68467;50.960;0.314;2024-01-30T08:33:05;100908.88;;;6.84;100.00
64628;BME280;68467;50.960;0.314;2024-01-30T08:35:32;100911.10;;;6.96;100.00
64628;BME280;68467;50.960;0.314;2024-01-30T08:37:59;100911.79;;;7.04;100.00
64628;BME280;68467;50.960;0.314;2024-01-30T08:40:26;100914.21;;;7.08;100.00
64628;BME280;68467;50.960;0.314;2024-01-30T08:42:54;100914.02;;;7.28;100.00
64628;BME280;68467;50.960;0.314;2024-01-30T08:45:21;100917.47;;;7.19;100.00
64628;BME280;68467;50.960;0.314;2024-01-30T08:47:48;100916.86;;;6.91;100.00
64628;BME280;68467;50.960;0.314;2024-01-30T08:50:15;100916.21;;;7.46;100.00
64628;BME280;68467;50.960;0.314;2024-01-30T08:52:42;100918.83;;;7.38;100.00
64628;BME280;68467;50.960;0.314;2024-01-30T08:55:09;100915.10;;;7.69;100.00
64628;BME280;68467;50.960;0.314;2024-01-30T08:57:36;100925.44;;;7.20;100.00
64628;BME280;68467;50.960;0.314;2024-01-30T09:00:06;100929.90;;;7.32;100.00
64628;BME280;68467;50.960;0.314;2024-01-30T09:02:34;100937.61;;;7.05;100.00
64628;BME280;68467;50.960;0.314;2024-01-30T09:05:00;100936.56;;;6.45;100.00
64628;BME280;68467;50.960;0.314;2024-01-30T09:07:28;100947.18;;;6.88;100.00
64628;BME280;68467;50.960;0.314;2024-01-30T09:09:56;100950.89;;;6.73;100.00
64628;BME280;68467;50.960;0.314;2024-01-30T09:12:23;100958.61;;;6.71;100.00
64628;BME280;68467;50.960;0.314;2024-01-30T09:14:50;100963.54;;;6.91;100.00
64628;BME280;68467;50.960;0.314;2024-01-30T09:17:17;100965.29;;;6.69;100.00
64628;BME280;68467;50.960;0.314;2024-01-30T09:19:45;100965.81;;;6.97;100.00
64628;BME280;68467;50.960;0.314;2024-01-30T09:22:13;100966.07;;;6.96;100.00
64628;BME280;68467;50.960;0.314;2024-01-30T09:24:41;100964.96;;;7.41;100.00
64628;BME280;68467;50.960;0.314;2024-01-30T09:27:07;100971.90;;;6.87;100.00
64628;BME280;68467;50.960;0.314;2024-01-30T09:29:35;100974.77;;;7.11;100.00
64628;BME280;68467;50.960;0.314;2024-01-30T09:32:02;100974.76;;;7.66;100.00
64628;BME280;68467;50.960;0.314;2024-01-30T09:34:31;100979.14;;;6.95;100.00
64628;BME280;68467;50.960;0.314;2024-01-30T09:36:58;100984.39;;;7.15;100.00
64628;BME280;68467;50.960;0.314;2024-01-30T09:39:26;100988.63;;;6.68;100.00
64628;BME280;68467;50.960;0.314;2024-01-30T09:42:02;100994.24;;;6.91;100.00
64628;BME280;68467;50.960;0.314;2024-01-30T09:44:32;100994.35;;;6.85;100.00
64628;BME280;68467;50.960;0.314;2024-01-30T09:47:01;100987.88;;;7.11;100.00
64628;BME280;68467;50.960;0.314;2024-01-30T09:49:29;100991.24;;;7.23;100.00
64628;BME280;68467;50.960;0.314;2024-01-30T09:51:56;100997.46;;;7.16;100.00
64628;BME280;68467;50.960;0.314;2024-01-30T09:54:23;101002.56;;;7.31;100.00
64628;BME280;68467;50.960;0.314;2024-01-30T09:56:51;101005.62;;;7.36;100.00
64628;BME280;68467;50.960;0.314;2024-01-30T09:59:18;101008.63;;;7.77;100.00
64628;BME280;68467;50.960;0.314;2024-01-30T10:01:45;101017.78;;;7.92;100.00
64628;BME280;68467;50.960;0.314;2024-01-30T10:04:13;101021.10;;;8.24;100.00
64628;BME280;68467;50.960;0.314;2024-01-30T10:06:40;101022.57;;;8.39;100.00
64628;BME280;68467;50.960;0.314;2024-01-30T10:09:08;101025.93;;;8.10;100.00
64628;BME280;68467;50.960;0.314;2024-01-30T10:11:36;101024.01;;;8.36;100.00
64628;BME280;68467;50.960;0.314;2024-01-30T10:14:03;101029.67;;;8.47;100.00
64628;BME280;68467;50.960;0.314;2024-01-30T10:16:30;101040.35;;;8.84;100.00
64628;BME280;68467;50.960;0.314;2024-01-30T10:18:57;101039.86;;;8.86;100.00
64628;BME280;68467;50.960;0.314;2024-01-30T10:21:24;101047.52;;;8.32;100.00
64628;BME280;68467;50.960;0.314;2024-01-30T10:23:52;101052.67;;;7.90;100.00
64628;BME280;68467;50.960;0.314;2024-01-30T10:26:19;101057.56;;;7.91;100.00
64628;BME280;68467;50.960;0.314;2024-01-30T10:28:46;101054.09;;;8.29;100.00
64628;BME280;68467;50.960;0.314;2024-01-30T10:31:17;101057.49;;;7.84;100.00
64628;BME280;68467;50.960;0.314;2024-01-30T10:33:44;101058.49;;;8.38;100.00
64628;BME280;68467;50.960;0.314;2024-01-30T10:36:14;101061.87;;;8.90;100.00
64628;BME280;68467;50.960;0.314;2024-01-30T10:38:43;101065.71;;;8.64;100.00
64628;BME280;68467;50.960;0.314;2024-01-30T10:41:11;101074.77;;;8.49;100.00
64628;BME280;68467;50.960;0.314;2024-01-30T10:43:54;101074.85;;;9.07;100.00
64628;BME280;68467;50.960;0.314;2024-01-30T10:46:29;101080.74;;;8.54;100.00
64628;BME280;68467;50.960;0.314;2024-01-30T10:48:58;101081.08;;;8.76;100.00
64628;BME280;68467;50.960;0.314;2024-01-30T10:51:26;101082.66;;;8.53;100.00
64628;BME280;68467;50.960;0.314;2024-01-30T10:53:54;101082.77;;;8.30;100.00
64628;BME280;68467;50.960;0.314;2024-01-30T10:56:23;101084.86;;;8.29;100.00
64628;BME280;68467;50.960;0.314;2024-01-30T10:58:52;101093.10;;;8.57;100.00
64628;BME280;68467;50.960;0.314;2024-01-30T11:01:20;101099.64;;;8.29;100.00
64628;BME280;68467;50.960;0.314;2024-01-30T11:03:47;101098.29;;;8.37;100.00
64628;BME280;68467;50.960;0.314;2024-01-30T11:06:15;101102.66;;;9.11;100.00
64628;BME280;68467;50.960;0.314;2024-01-30T11:08:42;101108.31;;;8.84;100.00
64628;BME280;68467;50.960;0.314;2024-01-30T11:11:10;101108.51;;;8.51;100.00
64628;BME280;68467;50.960;0.314;2024-01-30T11:13:37;101111.14;;;8.31;100.00
64628;BME280;68467;50.960;0.314;2024-01-30T11:16:05;101105.65;;;8.38;100.00
64628;BME280;68467;50.960;0.314;2024-01-30T11:18:35;101105.88;;;8.43;100.00
64628;BME280;68467;50.960;0.314;2024-01-30T11:21:05;101107.85;;;8.95;100.00
64628;BME280;68467;50.960;0.314;2024-01-30T11:23:34;101112.14;;;8.54;100.00
64628;BME280;68467;50.960;0.314;2024-01-30T11:26:01;101116.93;;;8.30;100.00
64628;BME280;68467;50.960;0.314;2024-01-30T11:28:33;101123.17;;;8.38;100.00
64628;BME280;68467;50.960;0.314;2024-01-30T11:31:03;101119.78;;;9.26;100.00
64628;BME280;68467;50.960;0.314;2024-01-30T11:33:30;101118.50;;;9.34;100.00
64628;BME280;68467;50.960;0.314;2024-01-30T11:35:58;101119.27;;;9.61;100.00
64628;BME280;68467;50.960;0.314;2024-01-30T11:38:27;101121.12;;;9.22;100.00
64628;BME280;68467;50.960;0.314;2024-01-30T11:41:00;101123.16;;;9.36;100.00
64628;BME280;68467;50.960;0.314;2024-01-30T11:43:27;101128.25;;;9.62;100.00
64628;BME280;68467;50.960;0.314;2024-01-30T11:45:54;101131.83;;;9.85;100.00
64628;BME280;68467;50.960;0.314;2024-01-30T11:48:22;101130.42;;;9.12;100.00
64628;BME280;68467;50.960;0.314;2024-01-30T11:50:50;101129.96;;;9.71;100.00
64628;BME280;68467;50.960;0.314;2024-01-30T11:53:17;101127.46;;;10.34;100.00
64628;BME280;68467;50.960;0.314;2024-01-30T11:55:50;101124.72;;;10.06;100.00
64628;BME280;68467;50.960;0.314;2024-01-30T11:58:17;101130.40;;;9.75;100.00
64628;BME280;68467;50.960;0.314;2024-01-30T12:00:53;101133.22;;;9.58;100.00
64628;BME280;68467;50.960;0.314;2024-01-30T12:03:20;101131.27;;;9.24;100.00
64628;BME280;68467;50.960;0.314;2024-01-30T12:05:56;101127.63;;;9.35;100.00
64628;BME280;68467;50.960;0.314;2024-01-30T12:08:23;101133.34;;;9.35;100.00
64628;BME280;68467;50.960;0.314;2024-01-30T12:10:56;101132.48;;;9.51;100.00
64628;BME280;68467;50.960;0.314;2024-01-30T12:13:23;101136.42;;;9.11;100.00
64628;BME280;68467;50.960;0.314;2024-01-30T12:15:50;101141.17;;;9.61;100.00
64628;BME280;68467;50.960;0.314;2024-01-30T12:18:19;101134.02;;;9.60;100.00
64628;BME280;68467;50.960;0.314;2024-01-30T12:20:57;101139.49;;;9.41;100.00
64628;BME280;68467;50.960;0.314;2024-01-30T12:23:24;101146.39;;;9.03;100.00
64628;BME280;68467;50.960;0.314;2024-01-30T12:25:52;101143.52;;;9.32;100.00
64628;BME280;68467;50.960;0.314;2024-01-30T12:28:19;101146.84;;;9.77;100.00
64628;BME280;68467;50.960;0.314;2024-01-30T12:30:47;101144.49;;;9.34;100.00
64628;BME280;68467;50.960;0.314;2024-01-30T12:33:17;101153.05;;;9.74;100.00
64628;BME280;68467;50.960;0.314;2024-01-30T12:35:46;101155.80;;;9.99;100.00
64628;BME280;68467;50.960;0.314;2024-01-30T12:38:13;101160.11;;;9.64;100.00
64628;BME280;68467;50.960;0.314;2024-01-30T12:40:41;101164.38;;;9.94;100.00
64628;BME280;68467;50.960;0.314;2024-01-30T12:43:08;101166.13;;;9.86;100.00
64628;BME280;68467;50.960;0.314;2024-01-30T12:45:36;101160.76;;;9.93;100.00
64628;BME280;68467;50.960;0.314;2024-01-30T12:48:04;101160.25;;;10.38;100.00
64628;BME280;68467;50.960;0.314;2024-01-30T12:50:31;101164.45;;;10.41;100.00